createdAt,value
2018-12-27T00:01:55.912Z,8.20
2018-12-27T00:04:24.196Z,7.67
2018-12-27T00:06:52.469Z,8.33
2018-12-27T00:09:20.765Z,8.50
2018-12-27T00:11:49.008Z,10.30
2018-12-27T00:14:17.136Z,9.17
2018-12-27T00:16:45.516Z,9.13
2018-12-27T00:19:13.739Z,9.20
2018-12-27T00:21:42.001Z,8.60
2018-12-27T00:24:10.121Z,8.53
2018-12-27T00:26:38.361Z,8.50
2018-12-27T00:29:06.480Z,8.63
2018-12-27T00:31:34.839Z,10.48
2018-12-27T00:34:02.954Z,10.90
2018-12-27T00:36:31.186Z,9.27
2018-12-27T00:38:59.364Z,9.20
2018-12-27T00:41:27.645Z,9.30
2018-12-27T00:43:55.760Z,8.77
2018-12-27T00:46:24.042Z,8.23
2018-12-27T00:48:52.160Z,7.97
2018-12-27T00:51:20.395Z,7.80
2018-12-27T00:53:48.601Z,7.40
2018-12-27T00:56:16.905Z,8.50
2018-12-27T00:58:45.166Z,8.00
2018-12-27T01:01:13.281Z,7.10
2018-12-27T01:03:41.749Z,8.43
2018-12-27T01:06:09.991Z,7.57
2018-12-27T01:08:38.156Z,7.83
2018-12-27T01:11:07.420Z,9.25
2018-12-27T01:13:35.624Z,8.50
2018-12-27T01:16:04.261Z,8.33
2018-12-27T01:18:32.424Z,6.63
2018-12-27T01:21:00.538Z,7.30
2018-12-27T01:23:28.776Z,6.70
2018-12-27T01:25:56.905Z,6.60
2018-12-27T01:28:26.374Z,7.03
2018-12-27T01:30:54.584Z,5.80
2018-12-27T01:33:22.818Z,7.30
2018-12-27T01:35:51.032Z,8.87
2018-12-27T01:38:19.772Z,6.77
2018-12-27T01:40:48.013Z,5.73
2018-12-27T01:43:16.224Z,5.77
2018-12-27T01:45:44.521Z,6.77
2018-12-27T01:48:12.846Z,6.03
2018-12-27T01:50:41.001Z,6.20
2018-12-27T01:53:09.234Z,5.67
2018-12-27T01:55:37.434Z,5.80
2018-12-27T01:58:05.760Z,6.20
2018-12-27T02:00:34.850Z,5.70
2018-12-27T02:03:03.151Z,5.90
2018-12-27T02:05:31.353Z,6.57
2018-12-27T02:07:59.747Z,6.07
2018-12-27T02:10:27.865Z,6.20
2018-12-27T02:12:56.145Z,5.63
2018-12-27T02:15:24.321Z,6.17
2018-12-27T02:17:52.492Z,5.03
2018-12-27T02:20:21.566Z,5.23
2018-12-27T02:22:49.917Z,3.93
2018-12-27T02:25:18.159Z,4.70
2018-12-27T02:27:46.274Z,3.93
2018-12-27T02:30:14.574Z,4.73
2018-12-27T02:32:42.693Z,5.23
2018-12-27T02:35:10.924Z,5.33
2018-12-27T02:37:39.111Z,5.50
2018-12-27T02:40:07.404Z,5.47
2018-12-27T02:42:35.512Z,5.27
2018-12-27T02:45:03.749Z,5.30
2018-12-27T02:47:31.970Z,5.50
2018-12-27T02:50:00.287Z,6.17
2018-12-27T02:52:28.528Z,5.60
2018-12-27T02:54:56.698Z,4.57
2018-12-27T02:57:25.028Z,4.77
2018-12-27T02:59:53.321Z,4.50
2018-12-27T03:02:21.617Z,4.60
2018-12-27T03:04:49.905Z,5.03
2018-12-27T03:07:18.027Z,5.20
2018-12-27T03:09:46.261Z,5.03
2018-12-27T03:12:14.450Z,4.67
2018-12-27T03:14:42.656Z,4.80
2018-12-27T03:17:11.519Z,4.40
2018-12-27T03:19:39.641Z,4.57
2018-12-27T03:22:07.873Z,4.53
2018-12-27T03:24:36.044Z,4.33
2018-12-27T03:27:04.228Z,4.43
2018-12-27T03:29:32.438Z,4.30
2018-12-27T03:32:00.634Z,3.97
2018-12-27T03:34:28.801Z,5.00
2018-12-27T03:36:57.102Z,4.37
2018-12-27T03:39:25.262Z,4.60
2018-12-27T03:41:53.561Z,4.30
2018-12-27T03:44:22.149Z,3.80
2018-12-27T03:46:50.389Z,3.90
2018-12-27T03:49:19.237Z,4.20
2018-12-27T03:51:47.445Z,3.83
2018-12-27T03:54:15.632Z,4.03
2018-12-27T03:56:43.871Z,4.30
2018-12-27T03:59:12.001Z,4.30
2018-12-27T04:01:40.239Z,4.20
2018-12-27T04:04:08.350Z,4.07
2018-12-27T04:06:36.629Z,4.37
2018-12-27T04:09:05.288Z,3.57
2018-12-27T04:11:33.458Z,3.87
2018-12-27T04:14:01.679Z,3.83
2018-12-27T04:16:29.857Z,3.63
2018-12-27T04:18:58.069Z,4.83
2018-12-27T04:21:26.280Z,4.30
2018-12-27T04:23:55.066Z,4.90
2018-12-27T04:26:23.352Z,5.60
2018-12-27T04:28:51.457Z,5.07
2018-12-27T04:31:19.826Z,5.20
2018-12-27T04:33:48.245Z,4.63
2018-12-27T04:36:16.582Z,5.33
2018-12-27T04:38:44.765Z,5.60
2018-12-27T04:41:13.099Z,5.37
2018-12-27T04:43:41.663Z,5.20
2018-12-27T04:46:09.769Z,4.93
2018-12-27T04:48:38.081Z,5.20
2018-12-27T04:51:06.322Z,5.90
2018-12-27T04:53:34.657Z,10.60
2018-12-27T04:56:02.942Z,15.47
2018-12-27T04:58:31.049Z,13.70
2018-12-27T05:00:59.290Z,12.97
2018-12-27T05:03:27.502Z,12.63
2018-12-27T05:05:55.814Z,11.40
2018-12-27T05:08:24.109Z,9.47
2018-12-27T05:10:52.365Z,10.57
2018-12-27T05:13:20.469Z,11.53
2018-12-27T05:15:48.761Z,9.67
2018-12-27T05:18:16.874Z,8.53
2018-12-27T05:20:45.117Z,8.33
2018-12-27T05:23:13.760Z,8.50
2018-12-27T05:25:42.089Z,7.40
2018-12-27T05:28:10.461Z,7.13
2018-12-27T05:30:38.747Z,7.67
2018-12-27T05:33:07.008Z,6.27
2018-12-27T05:35:35.129Z,6.30
2018-12-27T05:38:03.357Z,6.13
2018-12-27T05:40:31.580Z,6.63
2018-12-27T05:42:59.873Z,6.57
2018-12-27T05:45:28.193Z,6.90
2018-12-27T05:47:56.484Z,7.00
2018-12-27T05:50:24.820Z,7.03
2018-12-27T05:52:53.085Z,6.90
2018-12-27T05:55:21.765Z,6.83
2018-12-27T05:57:49.950Z,6.53
2018-12-27T06:00:18.292Z,6.70
2018-12-27T06:02:46.405Z,7.00
2018-12-27T06:05:14.521Z,8.30
2018-12-27T06:07:42.724Z,8.47
2018-12-27T06:10:10.844Z,7.90
2018-12-27T06:12:38.964Z,7.20
2018-12-27T06:15:07.234Z,7.50
2018-12-27T06:17:35.404Z,8.33
2018-12-27T06:20:03.684Z,8.80
2018-12-27T06:22:31.916Z,8.80
2018-12-27T06:25:00.036Z,10.13
2018-12-27T06:27:28.309Z,9.90
2018-12-27T06:29:56.485Z,10.53
2018-12-27T06:32:24.784Z,10.90
2018-12-27T06:34:53.049Z,9.93
2018-12-27T06:37:21.228Z,8.83
2018-12-27T06:39:49.500Z,9.27
2018-12-27T06:42:17.682Z,8.87
2018-12-27T06:44:46.010Z,7.63
2018-12-27T06:47:14.309Z,10.80
2018-12-27T06:49:42.647Z,8.47
2018-12-27T06:52:10.955Z,8.67
2018-12-27T06:54:39.202Z,8.10
2018-12-27T06:57:07.314Z,8.73
2018-12-27T06:59:35.540Z,8.83
2018-12-27T07:02:04.161Z,7.77
2018-12-27T07:04:33.861Z,8.13
2018-12-27T07:07:07.722Z,8.75
2018-12-27T07:09:41.507Z,8.80
2018-12-27T07:12:09.725Z,14.87
2018-12-27T07:14:37.956Z,12.40
2018-12-27T07:17:09.808Z,11.67
2018-12-27T07:19:38.193Z,11.10
2018-12-27T07:22:06.488Z,10.93
2018-12-27T07:24:34.771Z,26.47
2018-12-27T07:27:03.385Z,23.97
2018-12-27T07:29:31.692Z,21.67
2018-12-27T07:31:59.981Z,14.37
2018-12-27T07:34:28.430Z,12.27
2018-12-27T07:36:56.563Z,10.83
2018-12-27T07:39:24.749Z,9.77
2018-12-27T07:41:52.957Z,10.90
2018-12-27T07:44:21.087Z,10.50
2018-12-27T07:46:49.214Z,10.20
2018-12-27T07:49:17.438Z,9.90
2018-12-27T07:51:45.568Z,10.30
2018-12-27T07:54:13.831Z,9.53
2018-12-27T07:56:41.999Z,10.87
2018-12-27T07:59:10.179Z,9.73
2018-12-27T08:01:38.901Z,9.23
2018-12-27T08:04:07.020Z,9.50
2018-12-27T08:06:35.267Z,9.00
2018-12-27T08:09:05.197Z,9.03
2018-12-27T08:11:33.419Z,8.33
2018-12-27T08:14:01.637Z,9.13
2018-12-27T08:16:29.811Z,8.73
2018-12-27T08:18:57.980Z,26.93
2018-12-27T08:21:26.288Z,12.80
2018-12-27T08:23:54.402Z,10.13
2018-12-27T08:26:22.725Z,9.53
2018-12-27T08:28:51.021Z,9.20
2018-12-27T08:31:19.281Z,9.20
2018-12-27T08:33:47.391Z,9.50
2018-12-27T08:36:15.661Z,10.00
2018-12-27T08:38:43.778Z,9.73
2018-12-27T08:41:12.069Z,8.93
2018-12-27T08:43:40.198Z,9.40
2018-12-27T08:46:08.812Z,9.90
2018-12-27T08:48:36.985Z,10.37
2018-12-27T08:51:05.329Z,10.40
2018-12-27T08:53:33.718Z,10.37
2018-12-27T08:56:02.225Z,11.30
2018-12-27T08:58:30.488Z,11.53
2018-12-27T09:00:58.603Z,11.63
2018-12-27T09:03:26.872Z,13.47
2018-12-27T09:05:55.038Z,11.33
2018-12-27T09:08:23.297Z,12.03
2018-12-27T09:10:51.520Z,11.30
2018-12-27T09:13:19.820Z,12.20
2018-12-27T09:15:48.137Z,13.07
2018-12-27T09:18:16.244Z,11.53
2018-12-27T09:20:45.637Z,12.57
2018-12-27T09:23:13.832Z,10.93
2018-12-27T09:25:43.097Z,10.57
2018-12-27T09:28:11.347Z,10.80
2018-12-27T09:30:39.525Z,9.60
2018-12-27T09:33:07.744Z,7.97
2018-12-27T09:35:36.160Z,6.90
2018-12-27T09:38:04.322Z,5.30
2018-12-27T09:40:32.604Z,6.63
2018-12-27T09:43:00.727Z,6.47
2018-12-27T09:45:29.075Z,7.23
2018-12-27T09:47:57.212Z,7.20
2018-12-27T09:50:25.525Z,6.80
2018-12-27T09:52:53.728Z,6.73
2018-12-27T09:55:22.059Z,7.93
2018-12-27T09:57:50.212Z,7.87
2018-12-27T10:00:18.830Z,8.23
2018-12-27T10:02:47.082Z,7.30
2018-12-27T10:05:15.353Z,7.63
2018-12-27T10:07:43.526Z,6.17
2018-12-27T10:10:11.715Z,6.47
2018-12-27T10:12:39.884Z,6.97
2018-12-27T10:15:08.616Z,7.00
2018-12-27T10:17:37.070Z,6.40
2018-12-27T10:20:05.753Z,7.17
2018-12-27T10:22:35.484Z,6.57
2018-12-27T10:25:04.339Z,5.80
2018-12-27T10:27:32.546Z,6.23
2018-12-27T10:30:00.762Z,6.00
2018-12-27T10:32:29.060Z,6.30
2018-12-27T10:34:57.180Z,4.70
2018-12-27T10:37:25.421Z,5.07
2018-12-27T10:39:53.649Z,4.70
2018-12-27T10:42:22.023Z,4.73
2018-12-27T10:44:50.233Z,5.80
2018-12-27T10:47:18.550Z,5.37
2018-12-27T10:49:46.776Z,6.33
2018-12-27T10:52:15.097Z,5.90
2018-12-27T10:54:44.225Z,6.00
2018-12-27T10:57:12.590Z,5.27
2018-12-27T10:59:40.818Z,5.27
2018-12-27T11:02:08.965Z,7.80
2018-12-27T11:04:37.228Z,9.50
2018-12-27T11:07:05.351Z,5.33
2018-12-27T11:09:33.630Z,6.40
2018-12-27T11:12:02.169Z,6.37
2018-12-27T11:14:30.401Z,8.97
2018-12-27T11:16:58.625Z,7.50
2018-12-27T11:19:26.973Z,6.70
2018-12-27T11:21:55.237Z,6.47
2018-12-27T11:24:23.453Z,6.53
2018-12-27T11:26:51.773Z,6.27
2018-12-27T11:29:20.109Z,5.50
2018-12-27T11:31:56.898Z,5.73
2018-12-27T11:34:25.745Z,6.53
2018-12-27T11:36:54.101Z,5.77
2018-12-27T11:39:22.606Z,6.00
2018-12-27T11:41:51.000Z,6.77
2018-12-27T11:44:19.906Z,7.50
2018-12-27T11:46:49.449Z,13.13
2018-12-27T11:49:19.249Z,80.23
2018-12-27T11:51:47.620Z,40.03
2018-12-27T11:54:15.908Z,13.83
2018-12-27T11:56:44.193Z,12.97
2018-12-27T11:59:12.310Z,8.53
2018-12-27T12:01:40.577Z,9.03
2018-12-27T12:04:09.542Z,9.77
2018-12-27T12:06:37.973Z,8.10
2018-12-27T12:09:06.720Z,13.00
2018-12-27T12:11:34.936Z,7.20
2018-12-27T12:14:03.140Z,8.23
2018-12-27T12:16:31.521Z,16.10
2018-12-27T12:18:59.898Z,10.93
2018-12-27T12:21:29.272Z,9.60
2018-12-27T12:23:57.897Z,14.83
2018-12-27T12:26:26.430Z,18.67
2018-12-27T12:28:54.833Z,15.77
2018-12-27T12:31:25.206Z,10.80
2018-12-27T12:33:53.805Z,10.17
2018-12-27T12:36:22.332Z,7.63
2018-12-27T12:38:50.893Z,7.80
2018-12-27T12:41:19.209Z,7.30
2018-12-27T12:43:47.641Z,9.03
2018-12-27T12:46:16.034Z,16.57
2018-12-27T12:48:49.049Z,11.70
2018-12-27T12:51:17.551Z,8.20
2018-12-27T12:53:46.069Z,16.07
2018-12-27T12:56:14.578Z,8.27
2018-12-27T12:58:42.906Z,7.63
2018-12-27T13:01:11.341Z,9.63
2018-12-27T13:03:40.468Z,6.80
2018-12-27T13:06:08.990Z,9.20
2018-12-27T13:08:37.329Z,10.67
2018-12-27T13:11:05.802Z,19.80
2018-12-27T13:13:34.113Z,11.30
2018-12-27T13:16:02.705Z,9.73
2018-12-27T13:18:31.029Z,16.80
2018-12-27T13:20:59.729Z,9.33
2018-12-27T13:23:28.514Z,12.77
2018-12-27T13:25:57.241Z,8.50
2018-12-27T13:28:25.680Z,8.77
2018-12-27T13:30:54.062Z,16.00
2018-12-27T13:33:22.481Z,10.43
2018-12-27T13:35:50.877Z,10.50
2018-12-27T13:38:19.376Z,9.10
2018-12-27T13:40:47.747Z,11.83
2018-12-27T13:43:16.181Z,11.38
2018-12-27T13:45:44.503Z,8.07
2018-12-27T13:48:12.965Z,10.40
2018-12-27T13:50:41.273Z,14.47
2018-12-27T13:53:11.060Z,11.70
2018-12-27T13:55:43.163Z,12.23
2018-12-27T13:58:11.626Z,10.97
2018-12-27T14:00:40.029Z,10.27
2018-12-27T14:03:08.407Z,10.07
2018-12-27T14:05:36.901Z,11.07
2018-12-27T14:08:05.598Z,10.00
2018-12-27T14:10:34.437Z,9.20
2018-12-27T14:13:03.915Z,11.10
2018-12-27T14:15:32.362Z,13.43
2018-12-27T14:18:00.705Z,11.80
2018-12-27T14:20:29.687Z,12.90
2018-12-27T14:22:58.042Z,10.90
2018-12-27T14:25:28.369Z,11.60
2018-12-27T14:28:01.913Z,11.87
2018-12-27T14:30:33.047Z,14.70
2018-12-27T14:33:02.973Z,16.20
2018-12-27T14:35:31.737Z,18.63
2018-12-27T14:38:00.867Z,16.13
2018-12-27T14:40:29.521Z,15.80
2018-12-27T14:42:59.501Z,12.23
2018-12-27T14:45:28.608Z,13.07
2018-12-27T14:47:57.652Z,14.18
2018-12-27T14:50:26.827Z,16.07
2018-12-27T14:52:55.658Z,18.07
2018-12-27T14:55:24.229Z,16.70
2018-12-27T14:57:55.934Z,14.90
2018-12-27T15:00:24.450Z,26.50
2018-12-27T15:02:54.044Z,17.70
2018-12-27T15:05:22.732Z,16.87
2018-12-27T15:07:53.122Z,32.03
2018-12-27T15:10:21.894Z,20.30
2018-12-27T15:12:50.553Z,19.00
2018-12-27T15:15:19.094Z,22.73
2018-12-27T15:17:48.056Z,15.83
2018-12-27T15:20:19.480Z,26.03
2018-12-27T15:22:48.885Z,40.50
2018-12-27T15:25:17.481Z,32.90
2018-12-27T15:27:46.524Z,22.63
2018-12-27T15:30:15.821Z,21.23
2018-12-27T15:32:44.694Z,18.50
2018-12-27T15:35:13.365Z,17.83
2018-12-27T15:37:43.396Z,19.90
2018-12-27T15:40:12.090Z,15.30
2018-12-27T15:42:43.083Z,17.80
2018-12-27T15:45:12.008Z,16.77
2018-12-27T15:47:40.418Z,23.73
2018-12-27T15:50:11.231Z,36.80
2018-12-27T15:52:40.459Z,42.70
2018-12-27T15:55:09.371Z,40.30
2018-12-27T15:57:37.677Z,37.27
2018-12-27T16:00:06.872Z,31.77
2018-12-27T16:02:35.385Z,28.00
2018-12-27T16:05:04.072Z,27.80
2018-12-27T16:07:32.621Z,28.43
2018-12-27T16:10:01.106Z,30.70
2018-12-27T16:12:29.423Z,31.67
2018-12-27T16:14:57.849Z,36.43
2018-12-27T16:17:26.183Z,38.40
2018-12-27T16:19:55.561Z,37.70
2018-12-27T16:22:24.312Z,33.07
2018-12-27T16:24:52.726Z,31.53
2018-12-27T16:27:21.726Z,31.13
2018-12-27T16:29:50.610Z,30.37
2018-12-27T16:32:19.177Z,30.67
2018-12-27T16:34:47.655Z,33.20
2018-12-27T16:37:16.048Z,28.80
2018-12-27T16:39:44.525Z,30.33
2018-12-27T16:42:13.005Z,29.00
2018-12-27T16:44:41.741Z,30.97
2018-12-27T16:47:10.538Z,31.13
2018-12-27T16:49:38.845Z,31.40
2018-12-27T16:52:07.314Z,30.07
2018-12-27T16:54:35.634Z,31.20
2018-12-27T16:57:04.289Z,32.17
2018-12-27T16:59:32.657Z,31.03
2018-12-27T17:02:01.140Z,36.30
2018-12-27T17:04:29.717Z,37.17
2018-12-27T17:06:58.034Z,34.87
2018-12-27T17:09:26.789Z,33.60
2018-12-27T17:11:55.093Z,36.60
2018-12-27T17:14:23.529Z,35.43
2018-12-27T17:16:51.958Z,31.77
2018-12-27T17:19:20.888Z,33.23
2018-12-27T17:21:49.389Z,35.13
2018-12-27T17:24:17.821Z,29.50
2018-12-27T17:26:46.142Z,28.60
2018-12-27T17:29:14.777Z,30.30
2018-12-27T17:31:43.109Z,32.87
2018-12-27T17:34:12.538Z,29.90
2018-12-27T17:36:40.938Z,29.13
2018-12-27T17:39:09.506Z,32.43
2018-12-27T17:41:39.553Z,29.37
2018-12-27T17:44:07.884Z,31.20
2018-12-27T17:46:36.339Z,30.77
2018-12-27T17:49:04.770Z,31.60
2018-12-27T17:51:33.321Z,30.00
2018-12-27T17:54:01.793Z,33.50
2018-12-27T17:56:30.114Z,33.33
2018-12-27T17:58:58.564Z,39.83
2018-12-27T18:01:26.972Z,35.20
2018-12-27T18:03:55.337Z,43.33
2018-12-27T18:06:23.706Z,41.07
2018-12-27T18:08:52.159Z,46.20
2018-12-27T18:11:20.486Z,49.47
2018-12-27T18:13:49.002Z,43.97
2018-12-27T18:16:17.302Z,47.23
2018-12-27T18:18:45.787Z,50.37
2018-12-27T18:21:14.103Z,49.07
2018-12-27T18:23:42.592Z,62.70
2018-12-27T18:26:11.036Z,53.90
2018-12-27T18:28:39.906Z,48.93
2018-12-27T18:31:08.319Z,45.40
2018-12-27T18:33:36.768Z,101.73
2018-12-27T18:36:05.146Z,138.53
2018-12-27T18:38:33.518Z,135.03
2018-12-27T18:41:01.907Z,111.40
2018-12-27T18:43:30.306Z,88.07
2018-12-27T18:45:58.702Z,96.40
2018-12-27T18:48:27.130Z,78.23
2018-12-27T18:50:55.613Z,75.60
2018-12-27T18:53:24.058Z,73.40
2018-12-27T18:55:52.417Z,69.60
2018-12-27T18:58:20.866Z,62.40
2018-12-27T19:00:49.262Z,57.33
2018-12-27T19:03:17.708Z,60.67
2018-12-27T19:05:46.117Z,62.80
2018-12-27T19:08:14.492Z,59.23
2018-12-27T19:10:42.877Z,57.93
2018-12-27T19:13:12.445Z,57.07
2018-12-27T19:16:01.483Z,50.27
2018-12-27T19:18:35.676Z,48.13
2018-12-27T19:21:39.993Z,41.93
2018-12-27T19:24:08.761Z,38.20
2018-12-27T19:26:37.073Z,37.40
2018-12-27T19:29:05.570Z,31.00
2018-12-27T19:31:33.983Z,32.10
2018-12-27T19:34:02.551Z,35.73
2018-12-27T19:36:31.054Z,32.90
2018-12-27T19:38:59.401Z,33.87
2018-12-27T19:41:27.920Z,44.40
2018-12-27T19:43:56.382Z,39.70
2018-12-27T19:46:24.897Z,34.87
2018-12-27T19:48:53.396Z,34.53
2018-12-27T19:51:21.889Z,32.47
2018-12-27T19:53:50.209Z,31.77
2018-12-27T19:56:18.641Z,39.00
2018-12-27T19:58:47.103Z,39.37
2018-12-27T20:01:15.623Z,42.27
2018-12-27T20:03:44.310Z,46.03
2018-12-27T20:06:12.872Z,46.17
2018-12-27T20:08:41.384Z,47.97
2018-12-27T20:11:09.878Z,48.93
2018-12-27T20:13:38.262Z,47.90
2018-12-27T20:16:06.761Z,42.93
2018-12-27T20:18:35.111Z,45.38
2018-12-27T20:21:03.545Z,41.93
2018-12-27T20:23:31.987Z,40.83
2018-12-27T20:26:00.362Z,46.43
2018-12-27T20:28:28.825Z,46.43
2018-12-27T20:30:57.181Z,47.87
2018-12-27T20:33:25.577Z,51.80
2018-12-27T20:35:54.297Z,49.93
2018-12-27T20:38:22.870Z,55.20
2018-12-27T20:40:51.419Z,48.53
2018-12-27T20:43:19.866Z,47.27
2018-12-27T20:45:48.270Z,49.07
2018-12-27T20:48:16.816Z,50.70
2018-12-27T20:50:45.186Z,52.20
2018-12-27T20:53:13.646Z,51.33
2018-12-27T20:55:42.001Z,55.30
2018-12-27T20:58:10.509Z,55.23
2018-12-27T21:00:39.107Z,55.53
2018-12-27T21:03:07.469Z,53.70
2018-12-27T21:05:38.381Z,54.43
2018-12-27T21:08:13.907Z,53.30
2018-12-27T21:10:37.093Z,52.17
2018-12-27T21:13:05.498Z,70.77
2018-12-27T21:15:35.057Z,69.93
2018-12-27T21:18:03.983Z,54.37
2018-12-27T21:20:32.479Z,49.30
2018-12-27T21:23:00.816Z,46.37
2018-12-27T21:25:29.312Z,49.50
2018-12-27T21:27:57.649Z,48.47
2018-12-27T21:30:26.141Z,43.60
2018-12-27T21:32:54.635Z,40.93
2018-12-27T21:35:23.009Z,51.53
2018-12-27T21:37:51.708Z,48.83
2018-12-27T21:40:20.317Z,47.03
2018-12-27T21:42:48.715Z,44.83
2018-12-27T21:45:17.208Z,44.50
2018-12-27T21:47:45.735Z,45.03
2018-12-27T21:50:15.196Z,45.53
2018-12-27T21:52:50.933Z,45.70
2018-12-27T21:55:31.156Z,45.03
2018-12-27T21:58:02.018Z,48.73
2018-12-27T22:00:30.337Z,47.37
2018-12-27T22:02:58.810Z,53.40
2018-12-27T22:05:27.113Z,50.67
2018-12-27T22:07:55.555Z,47.40
2018-12-27T22:10:25.905Z,51.10
2018-12-27T22:13:03.414Z,47.03
2018-12-27T22:15:31.961Z,45.13
2018-12-27T22:18:00.537Z,44.20
2018-12-27T22:20:29.116Z,42.47
2018-12-27T22:22:57.510Z,44.00
2018-12-27T22:25:25.930Z,42.47
2018-12-27T22:27:54.301Z,41.70
2018-12-27T22:30:22.907Z,44.05
2018-12-27T22:32:51.398Z,41.33
2018-12-27T22:35:19.708Z,37.70
2018-12-27T22:38:02.436Z,38.67
2018-12-27T22:40:30.766Z,37.97
2018-12-27T22:42:59.208Z,35.67
2018-12-27T22:45:27.578Z,38.20
2018-12-27T22:47:55.952Z,35.30
2018-12-27T22:50:24.609Z,35.17
2018-12-27T22:52:52.911Z,32.50
2018-12-27T22:55:21.348Z,35.37
2018-12-27T22:57:49.753Z,34.60
2018-12-27T23:00:30.717Z,35.70
2018-12-27T23:02:59.902Z,36.97
2018-12-27T23:05:28.205Z,36.07
2018-12-27T23:07:56.658Z,35.77
2018-12-27T23:10:25.098Z,37.70
2018-12-27T23:12:53.615Z,38.00
2018-12-27T23:15:22.158Z,35.20
2018-12-27T23:17:51.501Z,34.47
2018-12-27T23:20:19.998Z,36.47
2018-12-27T23:22:48.317Z,35.33
2018-12-27T23:25:16.789Z,36.37
2018-12-27T23:27:54.087Z,34.57
2018-12-27T23:30:22.770Z,34.47
2018-12-27T23:32:51.130Z,33.43
2018-12-27T23:35:26.978Z,36.73
2018-12-27T23:38:05.728Z,34.63
2018-12-27T23:40:36.598Z,34.10
2018-12-27T23:43:04.909Z,31.73
2018-12-27T23:45:33.345Z,32.53
2018-12-27T23:48:01.657Z,32.60
2018-12-27T23:50:30.313Z,34.03
2018-12-27T23:52:58.637Z,36.43
2018-12-27T23:55:27.200Z,32.57
2018-12-27T23:57:55.500Z,35.47
